Terminal Aerodrome Forecast
Issued by NWS Cleveland, OH

Home | Current Version | Previous Version | Text Only | Print | Product List | Glossary Off
Versions: 1 2 3 4 5 6 7 8 9 10 11 12 13 14 15 16 17

000
FTUS41 KCLE 271130
TAFYNG
TAF
KYNG 271130Z 2712/2812 13005KT P6SM VCSH SCT025 OVC040
      TEMPO 2712/2715 BKN025 OVC040
     FM271500 05005KT P6SM BKN030
     FM272000 03005KT P6SM BKN035
     FM280000 VRB03KT P6SM SCT040 BKN120
     FM280900 VRB03KT 5SM BR BKN020=

USA.gov is the U.S. government's official web portal to all federal, state and local government web resources and services.